EDT,Max TemperatureF,Mean TemperatureF,Min TemperatureF,Max Dew PointF,MeanDew PointF,Min DewpointF,Max Humidity, Mean Humidity, Min Humidity, Max Sea Level PressureIn, Mean Sea Level PressureIn, Min Sea Level PressureIn, Max VisibilityMiles, Mean VisibilityMiles, Min VisibilityMiles, Max Wind SpeedMPH, Mean Wind SpeedMPH, Max Gust SpeedMPH,PrecipitationIn, CloudCover, Events, WindDirDegrees
2013-4-1,55,44,32,42,36,14,93,67,40,29.81,29.61,29.49,10,8,2,22,13,28,0.63,6,Rain,274
2013-4-2,39,34,28,13,10,7,47,37,27,29.85,29.78,29.73,10,10,10,28,14,34,0.00,3,,263
2013-4-3,45,37,29,16,10,6,53,37,20,30.07,29.89,29.83,10,10,10,30,16,39,0.00,1,,277
2013-4-4,53,40,26,30,16,7,62,40,17,30.22,30.10,29.97,10,10,10,20,9,27,0.00,0,,250
2013-4-5,54,45,35,32,24,20,59,44,28,29.96,29.80,29.64,10,10,10,25,11,32,0.00,1,,233
2013-4-6,42,34,26,20,8,1,50,34,18,30.34,30.14,29.85,10,10,9,28,12,36,T,2,Snow,320
2013-4-7,46,36,25,38,27,12,82,66,49,30.35,30.17,29.96,10,10,10,23,10,34,0.00,4,,183
2013-4-8,61,48,35,38,35,32,92,64,35,30.13,30.02,29.91,10,10,10,17,7,23,0.00,0,,255
2013-4-9,52,47,42,43,40,36,96,82,68,30.11,29.97,29.89,10,8,1,15,7,19,0.18,6,Rain,37
2013-4-10,55,49,42,46,42,39,100,86,71,30.00,29.95,29.90,10,7,2,12,4,13,0.47,8,Rain,171
2013-4-11,53,47,40,45,34,16,100,66,31,30.18,29.98,29.87,10,8,3,18,9,23,0.05,7,Rain,5
2013-4-12,40,37,34,34,27,15,92,65,37,30.26,30.10,29.90,10,6,2,21,13,27,0.38,8,Rain-Snow,81
2013-4-13,48,41,33,36,33,31,96,78,60,29.92,29.85,29.79,10,9,2,15,7,19,0.07,7,Rain,344
2013-4-14,50,45,39,41,35,29,92,72,52,30.19,29.99,29.90,10,10,10,21,6,24,0.07,7,,286
2013-4-15,51,41,31,38,34,28,92,71,50,30.41,30.35,30.20,10,10,9,15,6,22,0.00,3,,176
2013-4-16,57,47,37,48,40,37,92,79,66,30.41,30.23,29.97,10,10,8,24,11,34,T,3,Rain,190
2013-4-17,63,53,43,50,31,23,77,51,25,30.34,30.17,29.97,10,10,10,23,11,29,0.00,1,,323
2013-4-18,49,41,32,40,31,22,76,60,43,30.49,30.36,30.17,10,10,10,17,9,23,0.00,5,,153
2013-4-19,65,56,46,55,49,40,100,86,72,30.13,29.89,29.62,10,8,0,22,13,34,0.00,7,Fog,187
2013-4-20,57,49,41,56,39,20,100,66,32,30.16,29.78,29.58,10,8,2,24,14,31,0.18,5,Rain,253
2013-4-21,52,42,31,27,20,13,64,44,23,30.70,30.49,30.20,10,10,10,18,8,24,0.00,0,,309
2013-4-22,47,39,31,33,25,15,76,59,41,30.81,30.74,30.65,10,10,10,17,10,22,0.00,0,,70
2013-4-23,42,37,32,40,34,28,93,82,70,30.64,30.46,30.20,10,8,4,22,10,24,0.01,7,Rain,35
2013-4-24,64,53,42,49,44,40,96,76,56,30.16,29.92,29.78,10,8,2,21,11,27,0.05,5,Rain,13
2013-4-25,64,54,44,49,35,25,89,57,25,30.29,30.02,29.77,10,10,7,22,9,29,0.02,2,Rain,270
2013-4-26,53,43,33,37,31,25,85,63,41,30.46,30.41,30.30,10,10,10,17,6,22,0.00,0,,85
2013-4-27,57,46,34,40,37,33,92,68,43,30.43,30.38,30.32,10,10,10,14,6,16,0.00,1,,171
2013-4-28,61,48,34,42,35,30,92,64,36,30.35,30.31,30.27,10,10,10,17,6,21,0.00,0,,190
2013-4-29,60,49,37,45,39,34,92,71,50,30.28,30.25,30.22,10,10,10,17,6,25,T,0,,165
2013-4-30,64,50,36,44,34,22,92,57,22,30.40,30.32,30.26,10,10,9,17,5,20,0.00,0,,147